Allenstown, NH

8:02 AM EDT on October 02, 2014 (GMT -0400)
Pembroke Hill | Change Station
CLOSE
Current Station
Personal Weather Station
Location: Pembroke, NH
Elevation: 545 ft
Nearby Weather Stations

Elev 545 ft 43.17 °N, 71.45 °W | Updated 3 seconds ago

Overcast
Overcast
54.1 °F
Feels Like 54.1 °F
N
0.0
Wind Variable Wind from North
Gusts 0.0 mph

Today
High -- | Low -- °F
--% Chance of Precip.
Yesterday
High -- | Low -- °F
Precip. -- in
6:44 AM 6:25 PM
First Quarter, 58% visible
Pressure 30.19 in
Visibility 10.0 miles
Clouds Overcast 1100 ft
Dew Point 53 °F
Humidity 97%
Rainfall 0.01 in
Snow Depth Not available.
UV 0 out of 12
Pollen 1.40 out of 12
Air Quality Not available.
Flu Activity Not available.
METAR KCON 021151Z AUTO 36003KT 10SM OVC011 12/11 A3019 RMK AO2 SLP224 60001 70049 T01220111 10128 20122 51012

More Conditions Fewer Conditions

Pressure 30.19 in
Visibility 10.0 miles
Clouds Overcast 1100 ft
Dew Point 53 °F
Humidity 97%
Rainfall 0.01 in
Snow Depth Not available.
UV 0 out of 12
Pollen 1.40 out of 12
Air Quality Not available.
Flu Activity Not available.
METAR KCON 021151Z AUTO 36003KT 10SM OVC011 12/11 A3019 RMK AO2 SLP224 60001 70049 T01220111 10128 20122 51012

More Conditions Fewer Conditions

10-Day Weather Forecast

Almanac

Astronomy

Oct. 02, 2014 Rise Set
Actual Time 6:44 AM EDT 6:25 PM EDT
Civil Twilight 6:15 AM EDT 6:53 PM EDT
Nautical Twilight 5:42 AM EDT 7:26 PM EDT
Astronomical Twilight 5:09 AM EDT 7:59 PM EDT
Moon 2:37 PM EDT No Moon Set
Length of Visible Light 12h 37m
Length of Day
11h 41m
Tomorrow will be 2m 55s shorter.
First Quarter, 58% of the Moon is Illuminated
Today
First Quarter
Oct 8
Full
Oct 15
Last Quarter
Oct 23
New
Oct 30
First Quarter

Today's Extremes

State Highs State Lows

Community

WunderPhotos

Upload Photos

1,758,223 photos uploaded!

WunderBlogs® & News

Nearby

Air Quality

  Air Quality AQ Index Pollutant
Thursday Good
PM2.5
Thursday Good
OZONE

Snow Depth

Station Depth Elevation
No new snow has been reported.

Earthquake Activity

City Distance Mag. Time & Date
No recent earthquake activity has been reported nearby.
Minimum magnitude displayed is 2.5.

Coastal Water Temperatures

Place Temperature
No Stations Reporting

Nearby Weather Stations